Heber City, Utah
Current Conditions -  °F | °C
As of 7:15 PM on Monday 22 Dec 2014 (Local Time) from K36U Reporting Station
Light Snow Light Snow  
Wind Chill: 23°   Ceiling: 8500
Heat Index: 32°   Visibility: 10mi
Dew Point: 28°   Wind: 13mph
Humidity: 87%   Direction: 230°SW
Pressure: 30"   Gusts: 16mph
Location:  40.49°N, 111.45°W
Report Text: K36U 230215Z AUTO 23011G14KT 10SM -SN SCT033 SCT050 OVC085 00/M02 A3000 RMK AO2
Loading
Personal Weather Stations






























Interactive Weather Map New forecast layout! Learn more

10-Day Weather Forecast

Advertisements
Track Severe Weather on mobile